createdAt,value
2018-11-29T00:01:52.295Z,27.03
2018-11-29T00:04:22.227Z,26.23
2018-11-29T00:06:55.815Z,28.80
2018-11-29T00:09:25.047Z,27.27
2018-11-29T00:11:56.339Z,29.03
2018-11-29T00:14:28.687Z,26.50
2018-11-29T00:16:57.927Z,27.47
2018-11-29T00:19:30.938Z,27.50
2018-11-29T00:22:05.650Z,28.90
2018-11-29T00:24:35.086Z,27.03
2018-11-29T00:27:05.965Z,29.83
2018-11-29T00:29:37.098Z,28.27
2018-11-29T00:32:08.440Z,26.90
2018-11-29T00:34:38.819Z,29.27
2018-11-29T00:37:08.114Z,28.70
2018-11-29T00:39:39.715Z,27.70
2018-11-29T00:42:12.739Z,28.20
2018-11-29T00:44:46.262Z,29.40
2018-11-29T00:47:16.683Z,27.97
2018-11-29T00:49:48.083Z,26.43
2018-11-29T00:52:17.339Z,27.93
2018-11-29T00:54:46.579Z,28.67
2018-11-29T00:57:18.419Z,28.00
2018-11-29T00:59:49.020Z,26.50
2018-11-29T01:02:19.656Z,29.50
2018-11-29T01:04:49.855Z,29.77
2018-11-29T01:07:22.355Z,27.60
2018-11-29T01:09:54.815Z,28.50
2018-11-29T01:12:24.104Z,30.20
2018-11-29T01:14:56.507Z,28.53
2018-11-29T01:17:27.279Z,30.00
2018-11-29T01:19:58.508Z,31.80
2018-11-29T01:22:27.732Z,28.80
2018-11-29T01:24:56.991Z,28.90
2018-11-29T01:27:26.984Z,29.03
2018-11-29T01:29:58.047Z,29.77
2018-11-29T01:32:27.623Z,27.77
2018-11-29T01:34:56.903Z,30.17
2018-11-29T01:37:26.172Z,30.00
2018-11-29T01:39:55.459Z,30.50
2018-11-29T01:42:26.366Z,30.67
2018-11-29T01:44:56.032Z,30.33
2018-11-29T01:47:28.459Z,26.90
2018-11-29T01:50:02.826Z,28.77
2018-11-29T01:52:34.093Z,30.03
2018-11-29T01:55:08.311Z,28.90
2018-11-29T01:57:38.461Z,31.50
2018-11-29T02:00:14.952Z,31.10
2018-11-29T02:02:46.681Z,29.90
2018-11-29T02:05:16.435Z,30.00
2018-11-29T02:07:46.382Z,29.53
2018-11-29T02:10:22.603Z,30.30
2018-11-29T02:12:51.929Z,32.00
2018-11-29T02:15:21.162Z,30.00
2018-11-29T02:17:51.584Z,30.30
2018-11-29T02:20:21.659Z,27.40
2018-11-29T02:22:52.039Z,29.90
2018-11-29T02:25:21.940Z,30.37
2018-11-29T02:27:55.403Z,31.50
2018-11-29T02:30:24.693Z,30.10
2018-11-29T02:32:56.837Z,30.60
2018-11-29T02:35:28.075Z,28.00
2018-11-29T02:37:59.915Z,30.73
2018-11-29T02:40:32.060Z,27.90
2018-11-29T02:43:01.653Z,30.80
2018-11-29T02:45:34.905Z,30.03
2018-11-29T02:48:04.161Z,30.80
2018-11-29T02:50:33.463Z,28.87
2018-11-29T02:53:05.474Z,30.73
2018-11-29T02:55:36.097Z,32.40
2018-11-29T02:58:05.398Z,31.77
2018-11-29T03:00:34.681Z,30.87
2018-11-29T03:03:06.535Z,30.47
2018-11-29T03:05:37.875Z,31.10
2018-11-29T03:08:10.138Z,31.67
2018-11-29T03:10:42.558Z,28.73
2018-11-29T03:13:14.195Z,32.17
2018-11-29T03:15:44.804Z,31.07
2018-11-29T03:18:14.259Z,31.93
2018-11-29T03:20:45.103Z,31.47
2018-11-29T03:23:14.360Z,32.07
2018-11-29T03:25:44.317Z,30.67
2018-11-29T03:28:14.135Z,30.57
2018-11-29T03:30:43.415Z,28.80
2018-11-29T03:33:14.884Z,31.63
2018-11-29T03:35:44.788Z,30.50
2018-11-29T03:38:14.062Z,30.37
2018-11-29T03:40:44.880Z,30.80
2018-11-29T03:43:14.139Z,30.80
2018-11-29T03:45:45.921Z,30.37
2018-11-29T03:48:15.663Z,27.60
2018-11-29T03:50:45.019Z,30.93
2018-11-29T03:53:17.180Z,29.90
2018-11-29T03:55:48.631Z,31.20
2018-11-29T03:58:20.112Z,33.17
2018-11-29T04:00:49.777Z,31.47
2018-11-29T04:03:19.804Z,31.30
2018-11-29T04:05:49.652Z,32.33
2018-11-29T04:08:19.740Z,33.10
2018-11-29T04:10:49.201Z,33.30
2018-11-29T04:13:19.800Z,31.90
2018-11-29T04:15:49.292Z,31.53
2018-11-29T04:18:18.786Z,30.77
2018-11-29T04:20:50.808Z,33.10
2018-11-29T04:23:20.047Z,31.87
2018-11-29T04:25:49.302Z,29.60
2018-11-29T04:28:19.422Z,28.93
2018-11-29T04:30:50.160Z,29.63
2018-11-29T04:33:21.151Z,31.37
2018-11-29T04:35:51.731Z,29.47
2018-11-29T04:38:23.416Z,31.10
2018-11-29T04:40:55.855Z,28.47
2018-11-29T04:43:25.593Z,31.20
2018-11-29T04:46:08.992Z,30.40
2018-11-29T04:48:40.640Z,29.40
2018-11-29T04:51:11.980Z,28.50
2018-11-29T04:53:41.646Z,29.10
2018-11-29T04:56:12.168Z,29.27
2018-11-29T04:58:42.543Z,29.33
2018-11-29T05:01:13.767Z,30.00
2018-11-29T05:03:48.791Z,29.43
2018-11-29T05:06:19.468Z,29.80
2018-11-29T05:08:49.886Z,30.23
2018-11-29T05:11:19.653Z,31.93
2018-11-29T05:13:49.171Z,29.10
2018-11-29T05:16:18.953Z,29.90
2018-11-29T05:18:49.971Z,30.93
2018-11-29T05:21:19.291Z,29.10
2018-11-29T05:23:49.010Z,29.97
2018-11-29T05:26:18.300Z,28.80
2018-11-29T05:28:48.932Z,30.17
2018-11-29T05:31:18.530Z,30.07
2018-11-29T05:33:50.667Z,30.00
2018-11-29T05:36:20.439Z,30.50
2018-11-29T05:38:49.675Z,31.20
2018-11-29T05:41:18.951Z,30.90
2018-11-29T05:43:48.291Z,28.83
2018-11-29T05:46:19.311Z,30.00
2018-11-29T05:48:48.679Z,29.60
2018-11-29T05:51:17.943Z,30.07
2018-11-29T05:53:47.175Z,29.70
2018-11-29T05:56:17.207Z,29.30
2018-11-29T05:58:48.159Z,28.87
2018-11-29T06:01:21.804Z,29.50
2018-11-29T06:03:51.916Z,30.23
2018-11-29T06:06:23.075Z,30.63
2018-11-29T06:08:52.339Z,30.27
2018-11-29T06:11:21.589Z,31.67
2018-11-29T06:13:50.834Z,31.47
2018-11-29T06:16:20.526Z,29.23
2018-11-29T06:18:50.971Z,30.80
2018-11-29T06:21:21.251Z,32.30
2018-11-29T06:23:50.727Z,32.70
2018-11-29T06:26:19.955Z,31.20
2018-11-29T06:28:49.603Z,31.03
2018-11-29T06:31:21.583Z,32.00
2018-11-29T06:33:51.542Z,31.47
2018-11-29T06:36:21.539Z,31.67
2018-11-29T06:38:50.770Z,30.37
2018-11-29T06:41:23.107Z,30.63
2018-11-29T06:43:54.119Z,31.57
2018-11-29T06:46:23.468Z,33.20
2018-11-29T06:48:55.027Z,31.17
2018-11-29T06:51:26.136Z,30.10
2018-11-29T06:53:59.502Z,31.10
2018-11-29T06:56:30.346Z,30.83
2018-11-29T06:59:02.094Z,33.07
2018-11-29T07:01:32.364Z,31.83
2018-11-29T07:04:02.025Z,31.93
2018-11-29T07:06:32.761Z,31.80
2018-11-29T07:09:03.770Z,30.90
2018-11-29T07:11:34.742Z,34.07
2018-11-29T07:14:04.378Z,31.07
2018-11-29T07:16:34.888Z,29.93
2018-11-29T07:19:06.247Z,30.80
2018-11-29T07:21:54.215Z,32.53
2018-11-29T07:24:24.311Z,30.87
2018-11-29T07:26:54.966Z,31.57
2018-11-29T07:29:26.849Z,31.57
2018-11-29T07:31:56.123Z,30.57
2018-11-29T07:34:25.807Z,29.67
2018-11-29T07:36:56.624Z,31.17
2018-11-29T07:39:26.020Z,31.20
2018-11-29T07:41:56.102Z,30.73
2018-11-29T07:44:25.539Z,30.33
2018-11-29T07:46:54.838Z,27.90
2018-11-29T07:49:25.919Z,30.00
2018-11-29T07:51:55.170Z,29.33
2018-11-29T07:54:24.813Z,30.77
2018-11-29T07:56:55.848Z,29.03
2018-11-29T07:59:30.708Z,31.37
2018-11-29T08:02:01.656Z,31.40
2018-11-29T08:04:30.835Z,30.13
2018-11-29T08:07:02.076Z,31.30
2018-11-29T08:09:31.343Z,27.10
2018-11-29T08:12:02.781Z,28.57
2018-11-29T08:14:32.036Z,31.53
2018-11-29T08:17:02.341Z,29.43
2018-11-29T08:19:33.399Z,30.77
2018-11-29T08:22:03.324Z,30.47
2018-11-29T08:24:35.787Z,30.27
2018-11-29T08:27:05.167Z,28.57
2018-11-29T08:29:35.161Z,30.50
2018-11-29T08:32:03.688Z,28.93
2018-11-29T08:34:33.195Z,28.50
2018-11-29T08:37:04.339Z,28.13
2018-11-29T08:39:34.267Z,28.60
2018-11-29T08:42:04.258Z,27.33
2018-11-29T08:44:33.511Z,27.60
2018-11-29T08:47:02.757Z,26.90
2018-11-29T08:49:32.096Z,25.80
2018-11-29T08:52:01.353Z,28.57
2018-11-29T08:54:32.722Z,27.07
2018-11-29T08:57:02.434Z,27.80
2018-11-29T08:59:31.673Z,26.93
2018-11-29T09:02:01.480Z,25.70
2018-11-29T09:04:31.888Z,26.10
2018-11-29T09:07:03.631Z,25.70
2018-11-29T09:09:34.537Z,24.47
2018-11-29T09:12:03.915Z,25.20
2018-11-29T09:14:35.515Z,25.00
2018-11-29T09:17:07.046Z,24.43
2018-11-29T09:19:38.749Z,24.90
2018-11-29T09:22:11.052Z,23.80
2018-11-29T09:24:41.915Z,25.17
2018-11-29T09:27:11.555Z,26.17
2018-11-29T09:29:45.059Z,25.03
2018-11-29T09:32:14.341Z,23.20
2018-11-29T09:34:44.135Z,24.73
2018-11-29T09:37:13.610Z,25.93
2018-11-29T09:39:43.390Z,25.47
2018-11-29T09:42:14.063Z,26.93
2018-11-29T09:44:43.327Z,27.23
2018-11-29T09:47:12.577Z,25.17
2018-11-29T09:49:41.803Z,26.07
2018-11-29T09:52:13.299Z,24.60
2018-11-29T09:54:44.322Z,24.07
2018-11-29T09:57:13.806Z,26.27
2018-11-29T09:59:45.779Z,24.97
2018-11-29T10:02:16.124Z,26.50
2018-11-29T10:04:47.599Z,26.20
2018-11-29T10:07:18.499Z,25.33
2018-11-29T10:09:47.739Z,25.00
2018-11-29T10:12:17.036Z,23.07
2018-11-29T10:14:46.283Z,23.43
2018-11-29T10:17:15.535Z,25.50
2018-11-29T10:19:45.807Z,23.23
2018-11-29T10:22:16.063Z,22.47
2018-11-29T10:24:47.477Z,23.80
2018-11-29T10:27:18.369Z,25.00
2018-11-29T10:29:48.075Z,23.20
2018-11-29T10:32:17.410Z,24.70
2018-11-29T10:34:47.372Z,25.50
2018-11-29T10:37:16.782Z,25.00
2018-11-29T10:39:46.353Z,25.13
2018-11-29T10:42:16.165Z,24.60
2018-11-29T10:44:45.709Z,23.37
2018-11-29T10:47:15.540Z,23.40
2018-11-29T10:49:46.110Z,23.87
2018-11-29T10:52:16.243Z,22.33
2018-11-29T10:54:45.997Z,24.60
2018-11-29T10:57:16.090Z,23.87
2018-11-29T10:59:45.574Z,23.57
2018-11-29T11:02:21.525Z,22.57
2018-11-29T11:04:51.744Z,24.37
2018-11-29T11:07:22.964Z,23.03
2018-11-29T11:09:52.231Z,23.33
2018-11-29T11:12:22.016Z,22.57
2018-11-29T11:14:52.208Z,23.87
2018-11-29T11:17:21.470Z,23.57
2018-11-29T11:19:50.875Z,22.90
2018-11-29T11:22:20.256Z,24.80
2018-11-29T11:24:49.594Z,24.47
2018-11-29T11:27:19.832Z,25.00
2018-11-29T11:29:50.804Z,24.30
2018-11-29T11:32:20.478Z,24.37
2018-11-29T11:34:50.709Z,22.40
2018-11-29T11:37:20.439Z,20.87
2018-11-29T11:39:50.413Z,22.23
2018-11-29T11:42:21.812Z,20.90
2018-11-29T11:44:53.917Z,21.43
2018-11-29T11:47:24.380Z,21.50
2018-11-29T11:49:53.869Z,22.40
2018-11-29T11:52:28.881Z,23.10
2018-11-29T11:54:58.357Z,22.40
2018-11-29T11:57:28.413Z,21.03
2018-11-29T11:59:59.490Z,22.30
2018-11-29T12:02:30.712Z,21.07
2018-11-29T12:05:03.171Z,21.27
2018-11-29T12:07:33.825Z,19.87
2018-11-29T12:10:07.960Z,20.20
2018-11-29T12:12:39.226Z,19.70
2018-11-29T12:15:12.091Z,18.77
2018-11-29T12:17:42.524Z,19.00
2018-11-29T12:20:19.278Z,18.03
2018-11-29T12:22:48.809Z,17.43
2018-11-29T12:25:20.552Z,18.90
2018-11-29T12:27:51.273Z,18.80
2018-11-29T12:30:27.915Z,19.00
2018-11-29T12:33:02.234Z,18.10
2018-11-29T12:35:32.155Z,18.23
2018-11-29T12:38:02.273Z,17.87
2018-11-29T12:40:31.771Z,17.93
2018-11-29T12:43:01.607Z,18.03
2018-11-29T12:45:31.454Z,18.83
2018-11-29T12:48:05.084Z,18.00
2018-11-29T12:50:37.779Z,17.27
2018-11-29T12:53:09.467Z,16.00
2018-11-29T12:55:40.665Z,16.83
2018-11-29T12:58:09.941Z,16.30
2018-11-29T13:00:41.436Z,16.53
2018-11-29T13:03:17.990Z,16.97
2018-11-29T13:05:47.647Z,16.77
2018-11-29T13:08:18.040Z,16.03
2018-11-29T13:10:47.523Z,17.37
2018-11-29T13:13:16.748Z,17.30
2018-11-29T13:15:48.327Z,16.30
2018-11-29T13:18:19.766Z,16.27
2018-11-29T13:20:51.724Z,15.23
2018-11-29T13:23:21.047Z,17.43
2018-11-29T13:25:51.485Z,15.30
2018-11-29T13:28:21.152Z,16.53
2018-11-29T13:30:50.465Z,15.67
2018-11-29T13:33:19.992Z,15.87
2018-11-29T13:35:50.892Z,14.97
2018-11-29T13:38:20.816Z,15.00
2018-11-29T13:40:51.141Z,15.50
2018-11-29T13:43:20.059Z,13.37
2018-11-29T13:45:49.630Z,15.03
2018-11-29T13:48:19.003Z,13.57
2018-11-29T13:50:48.531Z,14.67
2018-11-29T13:53:19.253Z,14.00
2018-11-29T13:55:48.695Z,14.37
2018-11-29T13:58:18.052Z,14.83
2018-11-29T14:00:48.215Z,14.17
2018-11-29T14:03:18.069Z,14.17
2018-11-29T14:05:48.911Z,14.53
2018-11-29T14:08:18.279Z,15.07
2018-11-29T14:10:47.680Z,14.00
2018-11-29T14:13:17.079Z,13.40
2018-11-29T14:15:47.440Z,13.73
2018-11-29T14:18:17.031Z,12.60
2018-11-29T14:20:46.599Z,13.40
2018-11-29T14:23:15.855Z,15.77
2018-11-29T14:25:45.468Z,12.90
2018-11-29T14:28:15.323Z,13.17
2018-11-29T14:30:44.672Z,13.60
2018-11-29T14:33:13.930Z,13.30
2018-11-29T14:35:45.537Z,13.47
2018-11-29T14:38:15.220Z,12.20
2018-11-29T14:40:44.499Z,11.83
2018-11-29T14:43:15.562Z,14.07
2018-11-29T14:45:45.461Z,11.93
2018-11-29T14:48:14.755Z,13.40
2018-11-29T14:50:46.217Z,12.80
2018-11-29T14:53:15.582Z,12.00
2018-11-29T14:55:45.080Z,12.77
2018-11-29T14:58:19.576Z,13.10
2018-11-29T15:00:45.273Z,13.00
2018-11-29T15:03:20.423Z,14.67
2018-11-29T15:05:49.751Z,12.10
2018-11-29T15:08:20.821Z,13.87
2018-11-29T15:10:50.152Z,13.37
2018-11-29T15:13:19.538Z,12.97
2018-11-29T15:15:48.798Z,12.37
2018-11-29T15:18:18.559Z,13.60
2018-11-29T15:20:49.291Z,13.17
2018-11-29T15:23:20.922Z,14.83
2018-11-29T15:25:50.365Z,14.73
2018-11-29T15:28:19.940Z,14.20
2018-11-29T15:30:49.214Z,15.00
2018-11-29T15:33:18.531Z,15.07
2018-11-29T15:35:48.151Z,15.30
2018-11-29T15:38:19.025Z,13.90
2018-11-29T15:40:48.595Z,15.30
2018-11-29T15:43:17.886Z,14.20
2018-11-29T15:45:50.024Z,14.30
2018-11-29T15:48:19.389Z,15.67
2018-11-29T15:50:49.978Z,17.47
2018-11-29T15:53:20.001Z,14.50
2018-11-29T15:55:51.451Z,14.63
2018-11-29T15:58:22.875Z,13.80
2018-11-29T16:00:56.670Z,13.70
2018-11-29T16:03:27.926Z,15.77
2018-11-29T16:06:00.869Z,13.50
2018-11-29T16:08:30.289Z,14.93
2018-11-29T16:10:59.823Z,15.50
2018-11-29T16:13:29.661Z,14.30
2018-11-29T16:15:58.978Z,14.50
2018-11-29T16:18:30.539Z,14.63
2018-11-29T16:21:00.342Z,14.10
2018-11-29T16:23:30.734Z,14.67
2018-11-29T16:26:00.296Z,13.63
2018-11-29T16:28:31.723Z,14.90
2018-11-29T16:31:01.544Z,14.20
2018-11-29T16:33:34.431Z,15.80
2018-11-29T16:36:04.645Z,13.67
2018-11-29T16:38:34.463Z,15.10
2018-11-29T16:41:06.187Z,13.43
2018-11-29T16:43:37.386Z,14.47
2018-11-29T16:46:06.763Z,14.60
2018-11-29T16:48:38.260Z,13.73
2018-11-29T16:51:07.731Z,14.70
2018-11-29T16:53:42.250Z,13.50
2018-11-29T16:56:14.973Z,14.03
2018-11-29T16:58:44.643Z,13.60
2018-11-29T17:01:14.127Z,14.03
2018-11-29T17:03:45.562Z,14.83
2018-11-29T17:06:16.255Z,13.40
2018-11-29T17:08:45.766Z,13.20
2018-11-29T17:11:15.700Z,14.70
2018-11-29T17:13:45.247Z,14.60
2018-11-29T17:16:14.603Z,14.27
2018-11-29T17:18:47.402Z,12.97
2018-11-29T17:21:16.612Z,14.43
2018-11-29T17:23:46.151Z,13.03
2018-11-29T17:26:15.550Z,13.73
2018-11-29T17:28:45.131Z,14.23
2018-11-29T17:31:15.623Z,13.50
2018-11-29T17:33:47.865Z,15.10
2018-11-29T17:36:17.306Z,14.90
2018-11-29T17:38:53.355Z,14.23
2018-11-29T17:41:23.134Z,14.90
2018-11-29T17:43:52.779Z,13.90
2018-11-29T17:46:22.114Z,13.47
2018-11-29T17:48:53.033Z,16.27
2018-11-29T17:51:24.837Z,15.40
2018-11-29T17:53:55.760Z,16.20
2018-11-29T17:56:27.354Z,15.60
2018-11-29T17:58:59.898Z,16.50
2018-11-29T18:01:29.291Z,15.03
2018-11-29T18:04:01.435Z,16.77
2018-11-29T18:06:34.715Z,17.67
2018-11-29T18:09:07.775Z,15.30
2018-11-29T18:11:37.372Z,15.73
2018-11-29T18:14:09.490Z,14.80
2018-11-29T18:16:38.956Z,16.10
2018-11-29T18:19:13.173Z,14.30
2018-11-29T18:21:38.879Z,15.23
2018-11-29T18:24:09.387Z,16.10
2018-11-29T18:26:41.316Z,15.87
2018-11-29T18:29:12.086Z,15.67
2018-11-29T18:31:43.838Z,14.90
2018-11-29T18:34:14.339Z,17.20
2018-11-29T18:36:46.902Z,15.10
2018-11-29T18:39:16.806Z,15.80
2018-11-29T18:41:47.904Z,15.37
2018-11-29T18:44:18.417Z,15.27
2018-11-29T18:46:52.897Z,16.43
2018-11-29T18:49:22.309Z,16.10
2018-11-29T18:51:53.366Z,14.97
2018-11-29T18:54:24.039Z,15.10
2018-11-29T18:56:55.483Z,17.20
2018-11-29T18:59:26.447Z,15.60
2018-11-29T19:01:55.853Z,15.63
2018-11-29T19:04:25.435Z,13.97
2018-11-29T19:06:54.838Z,15.07
2018-11-29T19:09:24.348Z,14.73
2018-11-29T19:11:55.833Z,13.97
2018-11-29T19:14:25.448Z,14.80
2018-11-29T19:16:59.425Z,15.77
2018-11-29T19:19:30.572Z,14.57
2018-11-29T19:21:59.860Z,14.37
2018-11-29T19:24:29.219Z,14.40
2018-11-29T19:26:59.713Z,14.90
2018-11-29T19:29:33.166Z,14.70
2018-11-29T19:32:04.886Z,14.83
2018-11-29T19:34:34.814Z,14.40
2018-11-29T19:37:05.133Z,14.43
2018-11-29T19:39:40.147Z,16.60
2018-11-29T19:42:14.358Z,14.30
2018-11-29T19:44:46.664Z,14.77
2018-11-29T19:47:16.704Z,15.10
2018-11-29T19:49:46.349Z,15.37
2018-11-29T19:52:15.750Z,13.43
2018-11-29T19:54:45.271Z,14.90
2018-11-29T19:57:24.027Z,14.47
2018-11-29T19:59:57.398Z,13.80
2018-11-29T20:02:28.352Z,15.73
2018-11-29T20:04:59.373Z,13.53
2018-11-29T20:07:32.404Z,15.97
2018-11-29T20:10:01.946Z,14.37
2018-11-29T20:12:31.271Z,13.90
2018-11-29T20:15:03.536Z,14.40
2018-11-29T20:17:34.759Z,14.70
2018-11-29T20:20:07.424Z,14.57
2018-11-29T20:22:37.119Z,16.07
2018-11-29T20:25:15.663Z,14.63
2018-11-29T20:27:48.818Z,14.60
2018-11-29T20:30:25.977Z,15.53
2018-11-29T20:32:57.826Z,13.83
2018-11-29T20:35:27.590Z,14.63
2018-11-29T20:37:58.386Z,14.63
2018-11-29T20:40:35.850Z,15.47
2018-11-29T20:43:10.610Z,15.80
2018-11-29T20:45:51.018Z,17.00
2018-11-29T20:48:25.007Z,16.20
2018-11-29T20:51:00.342Z,16.20
2018-11-29T20:53:34.123Z,15.30
2018-11-29T20:56:08.167Z,15.93
2018-11-29T20:58:40.682Z,15.73
2018-11-29T21:01:10.807Z,16.47
2018-11-29T21:03:40.238Z,15.07
2018-11-29T21:06:11.681Z,16.00
2018-11-29T21:08:41.394Z,17.20
2018-11-29T21:11:10.919Z,17.57
2018-11-29T21:13:40.486Z,16.73
2018-11-29T21:16:10.300Z,15.87
2018-11-29T21:18:41.027Z,16.23
2018-11-29T21:21:13.463Z,17.43
2018-11-29T21:23:42.948Z,17.50
2018-11-29T21:26:12.583Z,16.90
2018-11-29T21:28:44.607Z,15.43
2018-11-29T21:31:13.926Z,15.07
2018-11-29T21:33:45.483Z,16.90
2018-11-29T21:36:16.779Z,16.00
2018-11-29T21:38:46.107Z,15.50
2018-11-29T21:41:15.535Z,16.63
2018-11-29T21:43:49.646Z,15.70
2018-11-29T21:46:19.898Z,16.80
2018-11-29T21:48:49.437Z,17.93
2018-11-29T21:51:19.064Z,16.30
2018-11-29T21:53:50.832Z,16.27
2018-11-29T21:56:20.150Z,16.67
2018-11-29T21:58:49.747Z,15.30
2018-11-29T22:01:20.167Z,17.13
2018-11-29T22:03:50.491Z,15.80
2018-11-29T22:06:22.237Z,16.73
2018-11-29T22:08:54.913Z,16.57
2018-11-29T22:11:26.907Z,17.13
2018-11-29T22:13:57.238Z,17.80
2018-11-29T22:16:33.248Z,16.37
2018-11-29T22:19:02.591Z,15.90
2018-11-29T22:21:31.861Z,18.17
2018-11-29T22:24:01.456Z,16.30
2018-11-29T22:26:40.499Z,16.30
2018-11-29T22:29:09.883Z,16.40
2018-11-29T22:31:40.680Z,15.00
2018-11-29T22:34:10.023Z,15.40
2018-11-29T22:36:40.535Z,17.10
2018-11-29T22:39:10.856Z,15.57
2018-11-29T22:41:47.225Z,15.17
2018-11-29T22:44:16.982Z,15.43
2018-11-29T22:46:46.950Z,15.80
2018-11-29T22:49:18.247Z,15.30
2018-11-29T22:51:48.163Z,16.33
2018-11-29T22:54:22.699Z,14.77
2018-11-29T22:56:52.200Z,17.47
2018-11-29T22:59:25.214Z,13.50
2018-11-29T23:01:56.067Z,15.63
2018-11-29T23:04:26.671Z,13.83
2018-11-29T23:06:58.586Z,14.70
2018-11-29T23:09:28.171Z,14.77
2018-11-29T23:11:58.732Z,14.83
2018-11-29T23:14:27.990Z,12.60
2018-11-29T23:16:59.085Z,13.30
2018-11-29T23:19:28.311Z,12.60
2018-11-29T23:21:59.739Z,13.90
2018-11-29T23:24:31.212Z,15.13
2018-11-29T23:27:00.465Z,14.07
2018-11-29T23:29:29.986Z,13.60
2018-11-29T23:31:59.256Z,12.70
2018-11-29T23:34:30.995Z,13.77
2018-11-29T23:37:00.406Z,13.63
2018-11-29T23:39:29.663Z,12.80
2018-11-29T23:42:00.226Z,13.03
2018-11-29T23:44:29.933Z,14.07
2018-11-29T23:46:59.985Z,12.60
2018-11-29T23:49:29.217Z,13.17
2018-11-29T23:52:01.176Z,13.03
2018-11-29T23:54:31.992Z,13.03
2018-11-29T23:57:01.799Z,12.20
2018-11-29T23:59:32.330Z,13.10
